Time;durP1;ratioP1;P1;durP2;ratioP2;P2;SDS_P1;SDS_P2;PMS_P1;PMS_P2;Temp;Humidity;BMP_temperature;BMP_pressure;BME280_temperature;BME280_humidity;BME280_pressure;Samples;Min_cycle;Max_cycle;Signal;HPM_P1;HPM_P2
2022/05/21 00:00:34;;;;;;;;;4.75;4.75;;;;;18.32;54.46;102203.53;2460303;27;45404;-89
2022/05/21 00:01:44;;;;;;;;;7.25;6.50;;;;;18.30;54.76;102194.72;2464059;27;47960;-91
2022/05/21 00:02:55;;;;;;;;;7.00;7.00;;;;;18.29;54.66;102198.31;2466995;27;45346;-90
2022/05/21 00:04:06;;;;;;;;;6.50;6.50;;;;;18.28;55.29;102199.25;2454068;27;47108;-88
2022/05/21 00:05:19;;;;;;;;;6.50;6.00;;;;;18.28;54.87;102201.91;2457354;27;45170;-88
2022/05/21 00:06:30;;;;;;;;;5.50;5.50;;;;;18.27;55.01;102200.19;2459299;27;45450;-88
2022/05/21 00:07:42;;;;;;;;;7.75;7.00;;;;;18.26;55.06;102204.63;2459318;27;45159;-89
2022/05/21 00:08:52;;;;;;;;;9.00;7.25;;;;;18.24;55.29;102198.53;2461182;27;47453;-89
2022/05/21 00:10:03;;;;;;;;;10.25;7.25;;;;;18.25;54.93;102202.06;2452445;27;45405;-88
2022/05/21 00:11:14;;;;;;;;;10.25;8.75;;;;;18.25;55.41;102204.72;2463380;27;47917;-88
2022/05/21 00:12:24;;;;;;;;;7.25;7.25;;;;;18.23;54.74;102204.75;2468086;27;45561;-85
2022/05/21 00:13:35;;;;;;;;;9.75;9.75;;;;;18.21;55.23;102203.97;2461332;27;45436;-85
2022/05/21 00:14:45;;;;;;;;;12.75;10.50;;;;;18.21;55.50;102196.84;2461891;27;45313;-85
2022/05/21 00:15:56;;;;;;;;;8.25;8.25;;;;;18.19;55.22;102198.72;2459852;27;48044;-85
2022/05/21 00:17:06;;;;;;;;;10.25;9.50;;;;;18.16;54.85;102197.94;2454207;27;44778;-85
2022/05/21 00:18:19;;;;;;;;;11.00;8.75;;;;;18.17;54.89;102200.56;2460531;27;45282;-85
2022/05/21 00:19:29;;;;;;;;;13.00;10.00;;;;;18.15;54.88;102197.06;2461126;27;45436;-85
2022/05/21 00:20:49;;;;;;;;;18.00;10.50;;;;;18.15;55.26;102202.38;2459170;27;46270;-85
2022/05/21 00:21:59;;;;;;;;;10.50;8.75;;;;;18.14;55.43;102200.66;2460369;27;45255;-87
2022/05/21 00:23:30;;;;;;;;;12.50;10.75;;;;;18.15;55.48;102201.53;2451993;27;46403;-87
2022/05/21 00:24:41;;;;;;;;;9.75;8.50;;;;;18.12;55.50;102202.53;2451428;28;45286;-85
2022/05/21 00:25:59;;;;;;;;;12.25;11.00;;;;;18.11;55.43;102206.97;2457817;27;46317;-85
2022/05/21 00:27:10;;;;;;;;;13.00;11.00;;;;;18.11;55.65;102209.66;2460521;27;45421;-84
2022/05/21 00:28:20;;;;;;;;;11.25;9.25;;;;;18.11;55.56;102206.13;2459520;27;45496;-84
2022/05/21 00:29:31;;;;;;;;;11.00;9.50;;;;;18.10;55.63;102199.03;2470846;27;45195;-84
2022/05/21 00:30:42;;;;;;;;;10.50;9.25;;;;;18.08;55.75;102200.91;2458092;27;46752;-84
2022/05/21 00:31:52;;;;;;;;;13.50;7.50;;;;;18.08;55.52;102207.09;2454194;27;45248;-84
2022/05/21 00:33:03;;;;;;;;;6.50;6.25;;;;;18.07;55.49;102201.88;2451068;27;48163;-84
2022/05/21 00:34:14;;;;;;;;;8.00;7.25;;;;;18.07;55.68;102210.72;2457461;27;44689;-84
2022/05/21 00:35:24;;;;;;;;;4.50;4.50;;;;;18.07;55.76;102201.88;2470908;27;48814;-85
2022/05/21 00:36:36;;;;;;;;;9.50;6.25;;;;;18.08;55.73;102208.88;2460583;27;45518;-85
2022/05/21 00:37:46;;;;;;;;;7.00;6.75;;;;;18.06;55.60;102201.00;2452674;27;47300;-83
2022/05/21 00:38:57;;;;;;;;;7.50;7.00;;;;;18.05;55.69;102207.22;2453495;27;45390;-82
2022/05/21 00:40:08;;;;;;;;;7.75;7.25;;;;;18.06;55.91;102206.31;2453343;27;47222;-82
2022/05/21 00:41:19;;;;;;;;;8.00;6.00;;;;;18.05;55.59;102211.72;2455915;27;45358;-86
2022/05/21 00:42:29;;;;;;;;;9.75;8.00;;;;;18.04;55.94;102210.84;2451747;27;45436;-84
2022/05/21 00:43:47;;;;;;;;;9.75;7.25;;;;;18.04;56.07;102212.63;2452098;27;45234;-83
2022/05/21 00:44:57;;;;;;;;;6.75;6.00;;;;;17.99;55.63;102202.16;2451750;27;46274;-83
2022/05/21 00:46:12;;;;;;;;;7.00;6.25;;;;;18.02;55.96;102212.69;2459363;27;45416;-83
2022/05/21 00:47:23;;;;;;;;;11.25;6.00;;;;;18.00;55.40;102210.06;2459295;27;47106;-83
2022/05/21 00:48:35;;;;;;;;;11.25;7.75;;;;;17.99;56.23;102212.81;2460875;27;45279;-83
2022/05/21 00:49:45;;;;;;;;;7.50;7.00;;;;;17.96;55.67;102207.59;2459508;27;47176;-83
2022/05/21 00:50:57;;;;;;;;;7.00;5.50;;;;;17.96;56.18;102207.59;2461356;27;45259;-83
2022/05/21 00:52:12;;;;;;;;;6.25;6.25;;;;;17.97;56.29;102209.34;2461441;27;45560;-83
2022/05/21 00:53:24;;;;;;;;;8.25;5.25;;;;;17.95;56.03;102208.56;2458220;27;45202;-83
2022/05/21 00:54:38;;;;;;;;;7.25;6.75;;;;;17.92;56.09;102204.22;2457624;27;46524;-82
2022/05/21 00:55:51;;;;;;;;;8.50;6.25;;;;;17.90;55.95;102199.91;2458623;27;45406;-82
2022/05/21 00:57:09;;;;;;;;;7.00;6.75;;;;;17.89;56.42;102204.34;2460878;27;48128;-83
2022/05/21 01:00:00;;;;;;;;;5.00;3.00;;;;;17.86;56.27;102207.13;2460582;27;45673;-86
2022/05/21 01:01:13;;;;;;;;;5.50;4.50;;;;;17.83;56.46;102207.28;2461048;27;45352;-86
2022/05/21 01:02:34;;;;;;;;;3.25;2.00;;;;;17.82;55.96;102211.72;2451445;27;46600;-87
2022/05/21 01:03:44;;;;;;;;;5.50;5.50;;;;;17.81;56.46;102217.06;2461058;27;45166;-83
2022/05/21 01:04:56;;;;;;;;;7.25;5.00;;;;;17.79;56.23;102210.97;2451795;27;48101;-89
2022/05/21 01:06:08;;;;;;;;;5.50;5.50;;;;;17.78;56.01;102212.75;2461313;27;44739;-90
2022/05/21 01:07:18;;;;;;;;;5.00;4.50;;;;;17.76;56.22;102211.94;2459004;27;46371;-86
2022/05/21 01:08:30;;;;;;;;;6.00;6.00;;;;;17.75;56.49;102211.06;2451908;27;45325;-89
2022/05/21 01:09:46;;;;;;;;;7.25;5.50;;;;;17.74;56.54;102204.03;2456527;27;48346;-92
2022/05/21 01:11:11;;;;;;;;;8.25;7.00;;;;;17.72;56.32;102215.66;2456004;27;45460;-86
2022/05/21 01:12:25;;;;;;;;;6.50;5.25;;;;;17.70;56.47;102202.44;2460644;27;45435;-89
2022/05/21 01:13:38;;;;;;;;;6.25;6.00;;;;;17.71;56.74;102206.81;2462137;27;45363;-88
2022/05/21 01:14:51;;;;;;;;;10.00;5.00;;;;;17.70;56.85;102207.75;2453325;27;48216;-89
2022/05/21 01:16:03;;;;;;;;;6.50;5.00;;;;;17.70;56.72;102204.22;2445432;28;45468;-88
2022/05/21 01:17:14;;;;;;;;;7.25;6.00;;;;;17.68;56.53;102211.41;2451014;28;45410;-89
2022/05/21 01:18:25;;;;;;;;;8.00;5.00;;;;;17.67;56.54;102205.22;2461886;27;45163;-89
2022/05/21 01:19:58;;;;;;;;;5.75;5.75;;;;;17.65;56.71;102202.63;2462273;27;46450;-89
2022/05/21 01:21:09;;;;;;;;;6.75;5.75;;;;;17.65;56.61;102210.59;2458094;27;45307;-89
2022/05/21 01:22:25;;;;;;;;;9.25;5.50;;;;;17.64;56.65;102213.31;2459191;27;46677;-89
2022/05/21 01:23:36;;;;;;;;;7.00;5.00;;;;;17.63;56.71;102204.47;2454671;27;45333;-87
2022/05/21 01:24:46;;;;;;;;;6.25;5.25;;;;;17.64;56.78;102210.66;2453461;27;47161;-87
2022/05/21 01:25:59;;;;;;;;;4.75;4.25;;;;;17.64;56.97;102208.84;2461755;27;45428;-87
2022/05/21 01:27:09;;;;;;;;;7.25;5.75;;;;;17.64;56.98;102205.31;2460968;27;45596;-85
2022/05/21 01:28:22;;;;;;;;;6.75;6.00;;;;;17.62;56.82;102210.72;2461404;27;44609;-85
2022/05/21 01:29:33;;;;;;;;;6.50;6.50;;;;;17.61;56.73;102210.75;2457665;27;46996;-85
2022/05/21 01:30:56;;;;;;;;;5.00;5.00;;;;;17.59;56.84;102213.50;2450213;28;45230;-84
2022/05/21 01:32:16;;;;;;;;;6.25;5.00;;;;;17.58;56.83;102209.09;2445263;28;47246;-85
2022/05/21 01:33:33;;;;;;;;;4.50;4.50;;;;;17.59;56.94;102215.28;2445082;28;45276;-84
2022/05/21 01:34:44;;;;;;;;;5.00;5.00;;;;;17.59;57.17;102210.84;2444653;27;46644;-84
2022/05/21 01:35:55;;;;;;;;;7.00;5.50;;;;;17.59;56.95;102209.97;2447400;27;45216;-84
2022/05/21 01:37:05;;;;;;;;;6.00;5.00;;;;;17.57;56.88;102209.16;2460880;27;45393;-83
2022/05/21 01:38:18;;;;;;;;;4.50;4.50;;;;;17.58;57.15;102208.25;2460130;27;45343;-82
2022/05/21 01:39:28;;;;;;;;;7.75;6.00;;;;;17.57;57.02;102210.03;2460431;27;45587;-81
2022/05/21 01:40:39;;;;;;;;;7.00;5.50;;;;;17.58;57.02;102213.56;2458890;27;44799;-82
2022/05/21 01:41:50;;;;;;;;;4.50;3.50;;;;;17.58;56.93;102210.91;2453235;27;46387;-83
2022/05/21 01:44:39;;;;;;;;;5.00;4.50;;;;;17.57;57.25;102211.81;2460623;27;45803;-83
2022/05/21 01:45:52;;;;;;;;;4.25;4.25;;;;;17.58;57.54;102213.56;2457118;27;45303;-82
2022/05/21 01:47:02;;;;;;;;;7.50;5.00;;;;;17.57;57.44;102211.81;2461018;27;46218;-83
2022/05/21 01:48:18;;;;;;;;;4.00;3.00;;;;;17.57;57.00;102217.13;2460459;27;45305;-84
2022/05/21 01:49:29;;;;;;;;;5.00;5.00;;;;;17.57;57.55;102220.66;2459993;27;46216;-84
2022/05/21 01:50:39;;;;;;;;;4.00;3.00;;;;;17.57;57.47;102209.16;2458690;27;45247;-84
2022/05/21 01:51:50;;;;;;;;;7.00;6.00;;;;;17.57;57.40;102222.44;2451385;27;45216;-85
2022/05/21 01:53:00;;;;;;;;;4.25;4.00;;;;;17.57;57.20;102223.31;2461674;27;45357;-84
2022/05/21 01:54:10;;;;;;;;;4.00;4.00;;;;;17.57;57.77;102217.13;2459073;27;47677;-83
2022/05/21 01:55:21;;;;;;;;;6.00;3.75;;;;;17.57;57.20;102217.13;2459582;27;44902;-87
2022/05/21 01:56:31;;;;;;;;;4.50;4.50;;;;;17.58;57.07;102218.88;2460267;27;46648;-86
2022/05/21 01:57:41;;;;;;;;;11.75;6.00;;;;;17.57;57.22;102219.78;2460553;27;44766;-87
2022/05/21 01:58:52;;;;;;;;;6.00;6.00;;;;;17.56;57.57;102218.91;2460137;27;45440;-86
2022/05/21 02:00:03;;;;;;;;;6.75;5.00;;;;;17.56;57.36;102210.09;2458093;27;45455;-87
2022/05/21 02:01:14;;;;;;;;;4.25;1.00;;;;;17.58;57.10;102218.88;2457910;27;46690;-89
2022/05/21 02:02:25;;;;;;;;;6.00;4.25;;;;;17.57;57.50;102217.13;2460954;27;45229;-89
2022/05/21 02:03:36;;;;;;;;;7.00;5.00;;;;;17.58;57.56;102210.91;2453169;27;45424;-88
2022/05/21 02:04:47;;;;;;;;;4.75;4.75;;;;;17.59;57.32;102204.66;2458234;27;45316;-87
2022/05/21 02:05:57;;;;;;;;;5.50;4.50;;;;;17.59;57.54;102207.31;2460151;27;45605;-90
2022/05/21 02:07:07;;;;;;;;;3.25;2.50;;;;;17.57;57.30;102207.38;2453802;27;44738;-85
2022/05/21 02:08:19;;;;;;;;;6.00;5.00;;;;;17.58;57.50;102202.94;2450295;28;48006;-85
2022/05/21 02:09:29;;;;;;;;;7.25;5.00;;;;;17.57;57.58;102206.50;2454935;27;45346;-91
2022/05/21 02:10:41;;;;;;;;;4.00;4.00;;;;;17.58;57.20;102202.94;2450903;27;46806;-91
2022/05/21 02:11:52;;;;;;;;;7.25;5.00;;;;;17.58;57.58;102197.63;2445965;27;45308;-90
2022/05/21 02:13:03;;;;;;;;;6.50;5.00;;;;;17.56;57.21;102196.81;2459747;27;45748;-89
2022/05/21 02:14:13;;;;;;;;;7.50;5.50;;;;;17.57;57.99;102195.88;2461173;27;45308;-90
2022/05/21 02:15:24;;;;;;;;;7.50;6.00;;;;;17.57;57.66;102199.41;2451282;27;46931;-92
2022/05/21 02:16:36;;;;;;;;;5.50;5.00;;;;;17.60;57.90;102211.69;2454950;27;45365;-91
2022/05/21 02:17:46;;;;;;;;;9.25;4.00;;;;;17.58;57.66;102200.28;2460866;27;45442;-92
2022/05/21 02:18:57;;;;;;;;;5.25;5.00;;;;;17.60;57.69;102209.03;2461268;27;45158;-91
2022/05/21 02:20:08;;;;;;;;;6.75;4.75;;;;;17.60;57.60;102217.91;2469339;27;47010;-82
2022/05/21 02:21:19;;;;;;;;;4.50;4.00;;;;;17.61;57.55;102208.09;2463951;27;44793;-82
2022/05/21 02:22:30;;;;;;;;;2.25;2.25;;;;;17.62;57.41;102204.53;2452807;27;45973;-82
2022/05/21 02:23:40;;;;;;;;;6.50;5.50;;;;;17.61;57.82;102210.75;2461160;27;45280;-83
2022/05/21 02:24:50;;;;;;;;;4.50;3.50;;;;;17.62;57.99;102210.72;2460031;27;47353;-83
2022/05/21 02:26:01;;;;;;;;;3.25;3.25;;;;;17.63;57.58;102208.94;2452975;27;44593;-83
2022/05/21 02:27:13;;;;;;;;;5.00;4.50;;;;;17.62;57.53;102208.06;2460384;27;45323;-82
2022/05/21 02:28:23;;;;;;;;;4.00;4.00;;;;;17.62;57.42;102208.06;2465473;27;45214;-83
2022/05/21 02:29:34;;;;;;;;;4.00;4.00;;;;;17.62;57.40;102210.72;2467459;27;45244;-87
2022/05/21 02:30:45;;;;;;;;;4.00;4.00;;;;;17.63;57.48;102208.94;2460971;27;44681;-87
2022/05/21 02:31:55;;;;;;;;;8.75;5.25;;;;;17.63;57.70;102200.97;2460018;27;46938;-84
2022/05/21 02:33:05;;;;;;;;;4.25;4.25;;;;;17.64;57.67;102208.00;2460623;27;45368;-82
2022/05/21 02:34:16;;;;;;;;;4.25;4.00;;;;;17.62;57.37;102205.41;2459642;27;46092;-82
2022/05/21 02:35:26;;;;;;;;;4.25;3.50;;;;;17.62;57.58;102209.84;2460375;27;45319;-83
2022/05/21 02:39:35;;;;;;;;;4.00;4.00;;;;;17.61;57.48;102224.06;2460611;27;45938;-88
2022/05/21 02:40:46;;;;;;;;;4.25;4.25;;;;;17.61;57.65;102208.09;2452653;27;45397;-87
2022/05/21 02:42:00;;;;;;;;;3.00;3.00;;;;;17.60;57.51;102206.38;2450649;27;45468;-88
2022/05/21 02:43:11;;;;;;;;;5.25;4.00;;;;;17.60;57.24;102206.38;2460314;27;44691;-88
2022/05/21 02:44:21;;;;;;;;;5.00;5.00;;;;;17.61;57.37;102210.75;2466948;27;45487;-88
2022/05/21 02:45:31;;;;;;;;;3.00;3.00;;;;;17.62;57.52;102209.84;2460925;27;44696;-88
2022/05/21 02:46:42;;;;;;;;;5.00;4.25;;;;;17.58;57.13;102202.94;2460544;27;45193;-88
2022/05/21 02:47:53;;;;;;;;;5.25;4.50;;;;;17.61;57.41;102208.09;2460884;27;45160;-87
2022/05/21 02:49:03;;;;;;;;;3.75;3.25;;;;;17.59;57.10;102204.66;2459255;27;47124;-88
2022/05/21 02:50:17;;;;;;;;;3.00;3.00;;;;;17.59;57.24;102199.31;2460344;27;45301;-90
2022/05/21 02:51:27;;;;;;;;;4.75;4.25;;;;;17.60;57.16;102206.38;2456815;27;45418;-87
2022/05/21 02:52:38;;;;;;;;;5.75;4.00;;;;;17.61;56.99;102214.28;2463896;27;45388;-87
2022/05/21 02:53:48;;;;;;;;;5.00;3.00;;;;;17.59;57.31;102204.66;2459543;27;45447;-87
2022/05/21 02:54:59;;;;;;;;;3.75;3.00;;;;;17.60;57.66;102211.69;2460974;27;45383;-87
2022/05/21 02:56:13;;;;;;;;;3.75;3.50;;;;;17.60;57.54;102211.69;2451887;27;46169;-87
2022/05/21 02:57:26;;;;;;;;;6.75;5.00;;;;;17.56;57.53;102210.94;2451353;27;44581;-87
2022/05/21 02:58:37;;;;;;;;;5.50;5.50;;;;;17.56;57.58;102210.09;2459243;27;48430;-86
2022/05/21 02:59:49;;;;;;;;;6.50;4.25;;;;;17.55;57.34;102217.22;2452849;27;45299;-86
2022/05/21 03:00:59;;;;;;;;;5.00;4.00;;;;;17.54;57.29;102208.34;2453960;27;45348;-86
2022/05/21 03:02:10;;;;;;;;;4.25;4.00;;;;;17.54;57.44;102207.47;2469313;27;44809;-83
2022/05/21 03:03:20;;;;;;;;;5.25;5.25;;;;;17.54;57.80;102208.34;2464542;27;46502;-82
2022/05/21 03:04:31;;;;;;;;;7.00;5.00;;;;;17.54;57.65;102208.34;2459729;27;45210;-82
2022/05/21 03:05:42;;;;;;;;;6.50;5.00;;;;;17.54;57.95;102207.47;2460638;27;46424;-82
2022/05/21 03:06:52;;;;;;;;;4.00;3.75;;;;;17.54;58.11;102219.00;2460667;27;45288;-82
2022/05/21 03:11:02;;;;;;;;;8.75;5.00;;;;;17.50;57.65;102220.03;2462052;27;45913;-82
2022/05/21 03:12:13;;;;;;;;;6.00;6.00;;;;;17.48;57.81;102211.25;2462580;27;45194;-82
2022/05/21 03:13:24;;;;;;;;;4.50;4.00;;;;;17.50;57.65;102212.06;2461605;27;47199;-82
2022/05/21 03:14:35;;;;;;;;;5.00;3.75;;;;;17.49;57.83;102220.97;2462022;27;45270;-82
2022/05/21 03:15:45;;;;;;;;;6.00;4.00;;;;;17.45;57.72;102214.03;2460060;27;46474;-82
2022/05/21 03:16:59;;;;;;;;;8.00;4.25;;;;;17.44;57.83;102206.97;2451887;28;45366;-82
2022/05/21 03:18:12;;;;;;;;;5.75;5.00;;;;;17.47;57.81;102221.94;2453295;27;47028;-82
2022/05/21 03:19:22;;;;;;;;;5.50;5.50;;;;;17.46;57.84;102218.41;2458237;27;45254;-82
2022/05/21 03:20:33;;;;;;;;;5.00;5.00;;;;;17.46;57.96;102215.75;2461794;27;45296;-82
2022/05/21 03:21:43;;;;;;;;;5.75;5.25;;;;;17.42;58.12;102208.84;2461671;27;45250;-81
2022/05/21 03:22:53;;;;;;;;;5.00;5.00;;;;;17.42;58.04;102207.06;2454273;27;47222;-82
2022/05/21 03:24:04;;;;;;;;;5.25;4.50;;;;;17.46;57.84;102215.75;2454201;27;44681;-81
2022/05/21 03:25:15;;;;;;;;;4.00;4.00;;;;;17.47;57.85;102217.50;2461472;27;45334;-82
2022/05/21 03:26:26;;;;;;;;;7.00;5.75;;;;;17.46;58.21;102213.09;2461702;27;45404;-81
2022/05/21 03:27:36;;;;;;;;;7.50;5.00;;;;;17.46;58.17;102213.09;2460610;27;46477;-81
2022/05/21 03:28:46;;;;;;;;;5.00;4.25;;;;;17.46;58.11;102213.09;2452269;27;45324;-81
2022/05/21 03:29:57;;;;;;;;;10.00;6.00;;;;;17.50;58.07;102221.81;2464045;27;47093;-81
2022/05/21 03:31:07;;;;;;;;;6.00;5.00;;;;;17.50;58.23;102221.81;2466224;27;45712;-81
2022/05/21 03:32:17;;;;;;;;;6.00;5.00;;;;;17.51;58.20;102223.53;2461133;27;47075;-81
2022/05/21 03:33:28;;;;;;;;;5.25;5.00;;;;;17.50;57.67;102217.38;2461959;27;45254;-81
2022/05/21 03:34:39;;;;;;;;;9.00;6.00;;;;;17.52;58.06;102214.66;2462035;27;45387;-81
2022/05/21 03:35:49;;;;;;;;;4.00;4.00;;;;;17.53;57.89;102214.59;2458117;27;45282;-81
2022/05/21 03:36:59;;;;;;;;;4.50;4.50;;;;;17.53;57.79;102211.09;2458795;27;45369;-84
2022/05/21 03:38:10;;;;;;;;;7.75;5.25;;;;;17.54;57.89;102216.34;2461457;27;45363;-84
2022/05/21 03:39:21;;;;;;;;;4.00;4.00;;;;;17.54;58.04;102213.66;2459862;27;45261;-85
2022/05/21 03:40:32;;;;;;;;;4.00;4.00;;;;;17.56;57.78;102215.41;2460269;27;45171;-88
2022/05/21 03:41:42;;;;;;;;;4.50;3.50;;;;;17.57;58.20;102219.78;2454206;27;47969;-87
2022/05/21 03:42:54;;;;;;;;;6.00;5.00;;;;;17.56;58.31;102208.28;2454592;27;44638;-88
2022/05/21 03:44:04;;;;;;;;;4.00;4.00;;;;;17.58;58.15;102205.59;2454533;27;47121;-87
2022/05/21 03:45:15;;;;;;;;;7.00;5.00;;;;;17.59;58.10;102204.66;2464408;27;45316;-86
2022/05/21 03:46:26;;;;;;;;;5.00;5.00;;;;;17.60;58.42;102203.72;2461740;27;46346;-86
2022/05/21 03:47:38;;;;;;;;;5.00;5.00;;;;;17.61;58.06;102202.78;2454965;27;45401;-86
2022/05/21 03:48:49;;;;;;;;;6.00;4.75;;;;;17.57;58.32;102199.41;2461771;27;47942;-85
2022/05/21 03:50:00;;;;;;;;;6.25;5.25;;;;;17.58;57.97;102203.78;2468686;27;45309;-85
2022/05/21 03:51:11;;;;;;;;;6.75;5.50;;;;;17.60;57.62;102211.69;2461399;27;45285;-85
2022/05/21 03:52:22;;;;;;;;;8.50;4.75;;;;;17.60;57.76;102214.38;2460979;27;45471;-85
2022/05/21 03:53:32;;;;;;;;;6.50;4.00;;;;;17.59;58.38;102213.50;2461373;27;45916;-83
2022/05/21 03:54:42;;;;;;;;;7.25;5.25;;;;;17.58;58.09;102221.53;2461456;27;45257;-82
2022/05/21 03:55:54;;;;;;;;;7.75;5.00;;;;;17.56;57.90;102221.56;2461372;27;45386;-87
2022/05/21 03:57:05;;;;;;;;;5.25;4.00;;;;;17.56;58.33;102226.06;2461738;27;45237;-89
2022/05/21 03:58:16;;;;;;;;;7.00;6.00;;;;;17.53;57.78;102225.22;2471118;27;48422;-87
2022/05/21 03:59:26;;;;;;;;;7.75;5.00;;;;;17.54;58.13;102220.78;2465669;27;45438;-87
2022/05/21 04:00:38;;;;;;;;;5.00;5.00;;;;;17.53;57.78;102222.56;2457123;27;46973;-87
2022/05/21 04:01:48;;;;;;;;;6.00;4.00;;;;;17.51;58.50;102213.78;2460343;27;45387;-88
2022/05/21 04:02:59;;;;;;;;;5.00;5.00;;;;;17.52;58.04;102219.97;2462037;27;45259;-86
2022/05/21 04:04:09;;;;;;;;;6.50;5.50;;;;;17.48;58.39;102216.56;2455291;27;45312;-85
2022/05/21 04:05:20;;;;;;;;;6.00;4.25;;;;;17.48;58.31;102219.22;2444203;28;48024;-86
2022/05/21 04:06:30;;;;;;;;;5.00;5.00;;;;;17.47;58.67;102217.50;2452892;27;45338;-85
2022/05/21 04:07:41;;;;;;;;;7.25;5.00;;;;;17.47;58.36;102230.78;2460779;27;45245;-85
2022/05/21 04:08:52;;;;;;;;;3.50;2.25;;;;;17.47;58.01;102227.25;2460728;27;45255;-84
2022/05/21 04:10:03;;;;;;;;;4.75;4.75;;;;;17.46;58.41;102220.22;2451673;28;46421;-80
2022/05/21 04:11:14;;;;;;;;;8.25;5.00;;;;;17.41;58.54;102218.59;2451941;27;45287;-80
2022/05/21 04:12:24;;;;;;;;;4.00;4.00;;;;;17.44;58.31;102212.28;2452062;27;45610;-80
2022/05/21 04:13:34;;;;;;;;;6.25;5.00;;;;;17.43;58.80;102223.88;2457560;27;45582;-80
2022/05/21 04:14:45;;;;;;;;;5.00;3.00;;;;;17.43;58.39;102213.25;2460216;27;46191;-84
2022/05/21 04:15:55;;;;;;;;;7.00;5.00;;;;;17.43;58.56;102219.41;2454770;27;45190;-84
2022/05/21 04:17:10;;;;;;;;;6.25;4.25;;;;;17.43;58.42;102216.72;2468952;27;47008;-84
2022/05/21 04:18:21;;;;;;;;;4.75;4.75;;;;;17.44;58.50;102222.91;2458233;27;45225;-84
2022/05/21 04:19:31;;;;;;;;;6.25;5.25;;;;;17.44;58.40;102225.59;2457419;27;46197;-83
2022/05/21 04:20:42;;;;;;;;;5.75;5.75;;;;;17.44;58.63;102225.59;2471000;27;44703;-84
2022/05/21 04:21:53;;;;;;;;;5.00;5.00;;;;;17.46;58.58;102220.22;2467581;27;46357;-84
2022/05/21 04:23:03;;;;;;;;;6.75;4.00;;;;;17.46;58.80;102221.06;2460616;27;45239;-84
2022/05/21 04:24:14;;;;;;;;;5.50;5.50;;;;;17.46;58.62;102223.72;2452261;27;47096;-86
2022/05/21 04:25:24;;;;;;;;;5.00;4.00;;;;;17.48;58.44;102229.84;2461100;27;45266;-86
2022/05/21 04:26:35;;;;;;;;;6.00;5.00;;;;;17.48;58.65;102234.31;2458259;27;45462;-86
2022/05/21 04:27:46;;;;;;;;;5.00;5.00;;;;;17.49;59.15;102234.25;2458793;27;45168;-81
2022/05/21 04:28:56;;;;;;;;;5.50;4.50;;;;;17.49;58.77;102234.25;2461125;27;45500;-80
2022/05/21 04:30:11;;;;;;;;;4.25;4.25;;;;;17.51;58.67;102235.03;2471070;27;45310;-84
2022/05/21 04:31:21;;;;;;;;;5.00;5.00;;;;;17.51;58.70;102227.06;2460458;27;45322;-84
2022/05/21 04:32:31;;;;;;;;;4.25;4.00;;;;;17.51;59.09;102229.72;2455537;27;45245;-82
2022/05/21 04:33:42;;;;;;;;;5.75;5.75;;;;;17.53;59.18;102227.88;2461874;27;45335;-82
2022/05/21 04:34:52;;;;;;;;;3.00;3.00;;;;;17.56;59.35;102220.75;2453603;27;46009;-82
2022/05/21 04:36:18;;;;;;;;;4.50;4.00;;;;;17.57;59.11;102222.44;2451644;27;46630;-82
2022/05/21 04:37:29;;;;;;;;;5.00;5.00;;;;;17.59;59.05;102215.28;2464138;27;45308;-81
2022/05/21 04:38:39;;;;;;;;;4.25;4.25;;;;;17.60;59.22;102212.56;2461009;27;47141;-81
2022/05/21 04:39:49;;;;;;;;;5.50;5.50;;;;;17.62;58.81;102216.03;2459897;27;45349;-81
2022/05/21 04:41:00;;;;;;;;;7.25;5.50;;;;;17.65;58.71;102217.72;2458484;27;46189;-82
2022/05/21 04:42:10;;;;;;;;;4.25;4.25;;;;;17.67;58.83;102213.19;2451376;27;45236;-81
2022/05/21 04:43:20;;;;;;;;;5.75;5.00;;;;;17.66;59.25;102214.09;2443873;28;47987;-84
2022/05/21 04:44:34;;;;;;;;;4.50;4.50;;;;;17.70;59.36;102217.53;2451440;28;45255;-85
2022/05/21 04:45:44;;;;;;;;;7.00;5.25;;;;;17.69;58.76;102215.78;2461042;27;47417;-84
2022/05/21 04:46:54;;;;;;;;;3.00;2.75;;;;;17.72;58.89;102216.53;2459048;27;45425;-85
2022/05/21 04:48:06;;;;;;;;;5.00;5.00;;;;;17.73;58.72;102215.59;2467536;27;46731;-85
2022/05/21 04:49:17;;;;;;;;;4.50;4.50;;;;;17.74;58.64;102217.34;2467583;27;44744;-85
2022/05/21 04:50:27;;;;;;;;;6.00;4.50;;;;;17.76;58.54;102214.59;2451745;27;46897;-85
2022/05/21 04:51:38;;;;;;;;;5.50;5.25;;;;;17.75;58.54;102213.72;2450024;27;45275;-84
2022/05/21 04:52:49;;;;;;;;;8.00;6.00;;;;;17.77;58.54;102217.22;2461297;27;46332;-85
2022/05/21 04:53:59;;;;;;;;;5.00;5.00;;;;;17.79;58.68;102216.28;2460789;27;45270;-84
2022/05/21 04:55:10;;;;;;;;;7.75;6.00;;;;;17.79;58.54;102216.28;2460752;27;47175;-84
2022/05/21 04:56:21;;;;;;;;;10.00;6.00;;;;;17.80;58.48;102223.34;2463695;27;45267;-84
2022/05/21 04:57:31;;;;;;;;;5.50;5.00;;;;;17.80;58.59;102218.91;2467313;27;45296;-84
2022/05/21 04:58:41;;;;;;;;;5.50;5.00;;;;;17.79;58.54;102221.59;2461422;27;44562;-85
2022/05/21 04:59:52;;;;;;;;;5.00;5.00;;;;;17.80;59.03;102221.56;2461628;27;45407;-84
2022/05/21 05:01:03;;;;;;;;;8.00;6.25;;;;;17.77;58.96;102219.88;2461828;27;45220;-85
2022/05/21 05:02:14;;;;;;;;;6.75;5.75;;;;;17.77;58.63;102219.00;2461465;27;45380;-85
2022/05/21 05:03:25;;;;;;;;;7.75;6.25;;;;;17.78;58.51;102220.72;2461724;27;45109;-85
2022/05/21 05:04:37;;;;;;;;;6.50;5.50;;;;;17.76;58.67;102218.13;2460682;27;46619;-87
2022/05/21 05:05:47;;;;;;;;;5.00;5.00;;;;;17.75;58.54;102219.03;2459689;27;44741;-86
2022/05/21 05:06:58;;;;;;;;;8.25;5.00;;;;;17.76;58.60;102222.59;2461410;27;45051;-87
2022/05/21 05:08:09;;;;;;;;;6.00;6.00;;;;;17.74;58.03;102225.31;2453836;27;44731;-89
2022/05/21 05:09:22;;;;;;;;;9.25;6.00;;;;;17.73;58.09;102220.91;2460765;27;46169;-89
2022/05/21 05:10:34;;;;;;;;;8.50;7.25;;;;;17.74;58.24;102220.00;2470647;27;45230;-89
2022/05/21 05:11:44;;;;;;;;;4.25;4.25;;;;;17.72;58.54;102227.16;2467923;27;47386;-89
2022/05/21 05:12:54;;;;;;;;;8.00;6.50;;;;;17.72;58.86;102226.31;2458253;27;44817;-88
2022/05/21 05:14:05;;;;;;;;;11.00;7.00;;;;;17.71;59.18;102228.09;2450807;28;47069;-89
2022/05/21 05:15:15;;;;;;;;;6.00;6.00;;;;;17.70;58.54;102223.72;2459771;27;44807;-87
2022/05/21 05:16:26;;;;;;;;;6.75;5.00;;;;;17.70;58.71;102223.72;2467693;27;47123;-88
2022/05/21 05:17:36;;;;;;;;;6.75;5.00;;;;;17.70;58.73;102226.38;2457293;27;45202;-87
2022/05/21 05:18:46;;;;;;;;;6.00;6.00;;;;;17.70;58.74;102218.41;2454811;27;45459;-87
2022/05/21 05:19:59;;;;;;;;;6.00;3.50;;;;;17.72;58.66;102226.31;2460756;27;45332;-87
2022/05/21 05:21:09;;;;;;;;;7.00;5.75;;;;;17.71;58.46;102220.09;2461066;27;46339;-88
2022/05/21 05:22:21;;;;;;;;;7.25;6.75;;;;;17.72;58.19;102215.66;2470670;27;45403;-88
2022/05/21 05:23:31;;;;;;;;;6.50;4.00;;;;;17.73;58.37;102217.41;2467944;27;45527;-87
2022/05/21 05:24:42;;;;;;;;;5.75;5.75;;;;;17.73;58.54;102215.59;2461273;27;45161;-87
2022/05/21 05:25:53;;;;;;;;;5.25;5.25;;;;;17.75;58.82;102212.88;2460228;27;45369;-87
2022/05/21 05:27:04;;;;;;;;;4.00;4.00;;;;;17.75;58.89;102211.06;2469682;27;45372;-87
2022/05/21 05:28:18;;;;;;;;;6.75;5.50;;;;;17.75;59.05;102213.72;2466957;27;46471;-87
2022/05/21 05:29:29;;;;;;;;;4.25;4.25;;;;;17.76;58.75;102217.25;2460489;27;45402;-87
2022/05/21 05:30:39;;;;;;;;;4.00;4.00;;;;;17.75;58.71;102215.53;2444266;28;47195;-88
2022/05/21 05:31:49;;;;;;;;;5.25;5.25;;;;;17.77;59.14;102213.69;2457200;27;45473;-87
2022/05/21 05:33:00;;;;;;;;;5.25;5.25;;;;;17.75;58.90;102213.72;2461008;27;47843;-87
2022/05/21 05:34:10;;;;;;;;;10.00;6.00;;;;;17.75;58.75;102211.06;2460585;27;45255;-87
2022/05/21 05:35:21;;;;;;;;;5.25;4.00;;;;;17.75;58.85;102213.72;2453354;27;47889;-87
2022/05/21 05:36:32;;;;;;;;;7.00;6.00;;;;;17.75;59.20;102216.38;2451179;27;45276;-87
2022/05/21 05:37:43;;;;;;;;;6.25;5.50;;;;;17.75;58.89;102218.22;2456706;27;46802;-86
2022/05/21 05:38:53;;;;;;;;;9.75;4.75;;;;;17.76;58.75;102220.78;2443787;28;45316;-87
2022/05/21 05:40:10;;;;;;;;;7.00;6.75;;;;;17.76;59.01;102217.25;2450895;28;46362;-86
2022/05/21 05:41:20;;;;;;;;;6.25;5.00;;;;;17.76;58.46;102218.13;2455103;27;45213;-90